Sanski Most, Bosnia and Herzegovina
Current Conditions -  °F | °C
As of 3:00 AM on Monday 24 Nov 2014 (Local Time) from LQBK Reporting Station
Haze Haze  
Wind Chill: 36°   Ceiling: 300
Heat Index: 36°   Visibility: 1.8mi
Dew Point: 36°   Wind: 2mph
Humidity: 100%   Direction: 250°WSW
Pressure: 30.39"   Gusts: NA
Location:  44.77°N, 16.67°E
Report Text: LQBK 240100Z 25002KT 3000 BR BKN003 02/02 Q1029 NOSIG
Loading
Personal Weather Stations






























Interactive Weather Map New forecast layout! Learn more

10-Day Weather Forecast

Advertisements
Track Severe Weather on mobile